createdAt,value
2017-08-10T00:01:08.124Z,84.73
2017-08-10T00:02:20.629Z,84.73
2017-08-10T00:03:33.264Z,84.73
2017-08-10T00:04:45.545Z,84.73
2017-08-10T00:05:57.817Z,85.02
2017-08-10T00:07:10.073Z,85.11
2017-08-10T00:08:22.731Z,85.11
2017-08-10T00:09:35.356Z,84.83
2017-08-10T00:10:47.901Z,84.54
2017-08-10T00:12:00.754Z,84.73
2017-08-10T00:13:13.399Z,85.31
2017-08-10T00:14:25.696Z,85.21
2017-08-10T00:15:38.334Z,85.21
2017-08-10T00:16:50.962Z,85.31
2017-08-10T00:18:03.226Z,85.02
2017-08-10T00:19:15.779Z,85.4
2017-08-10T00:20:27.792Z,85.31
2017-08-10T00:21:40.391Z,84.73
2017-08-10T00:22:53.198Z,84.83
2017-08-10T00:24:05.766Z,84.92
2017-08-10T00:25:18.131Z,85.21
2017-08-10T00:26:30.441Z,85.31
2017-08-10T00:27:43.011Z,85.6
2017-08-10T00:28:55.608Z,85.69
2017-08-10T00:30:08.213Z,85.78
2017-08-10T00:31:20.891Z,85.88
2017-08-10T00:32:33.184Z,85.78
2017-08-10T00:33:45.798Z,85.88
2017-08-10T00:34:58.367Z,86.02
2017-08-10T00:36:10.955Z,85.31
2017-08-10T00:37:23.617Z,85.98
2017-08-10T00:38:35.895Z,85.69
2017-08-10T00:39:48.134Z,85.83
2017-08-10T00:41:00.674Z,85.78
2017-08-10T00:42:13.007Z,85.54
2017-08-10T00:43:25.616Z,85.74
2017-08-10T00:44:38.237Z,85.74
2017-08-10T00:45:50.482Z,85.78
2017-08-10T00:47:02.764Z,85.88
2017-08-10T00:48:15.088Z,85.88
2017-08-10T00:49:27.653Z,86.41
2017-08-10T00:50:39.913Z,86.27
2017-08-10T00:51:52.568Z,89.15
2017-08-10T00:53:04.590Z,89.1
2017-08-10T00:54:17.203Z,90.26
2017-08-10T00:55:29.498Z,91.17
2017-08-10T00:56:41.431Z,91.66
2017-08-10T00:57:53.702Z,92.91
2017-08-10T00:59:05.970Z,92.61
2017-08-10T01:00:18.569Z,92.33
2017-08-10T01:01:30.847Z,93.87
2017-08-10T01:02:43.541Z,93.96
2017-08-10T01:03:55.830Z,94.59
2017-08-10T01:05:07.816Z,95.75
2017-08-10T01:06:20.031Z,95.55
2017-08-10T01:07:32.714Z,95.75
2017-08-10T01:08:45.086Z,96.9
2017-08-10T01:09:57.037Z,96.42
2017-08-10T01:11:09.270Z,95.94
2017-08-10T01:12:21.232Z,95.65
2017-08-10T01:13:33.824Z,97.19
2017-08-10T01:14:46.415Z,97.96
2017-08-10T01:15:58.704Z,96.99
2017-08-10T01:17:10.694Z,98.19
2017-08-10T01:18:23.355Z,98.29
2017-08-10T01:19:35.633Z,99.15
2017-08-10T01:20:47.928Z,98.96
2017-08-10T01:22:00.519Z,99.99
2017-08-10T01:23:12.795Z,99.99
2017-08-10T01:24:24.786Z,99.99
2017-08-10T01:25:37.072Z,99.99
2017-08-10T01:26:49.364Z,99.35
2017-08-10T01:28:01.326Z,99.99
2017-08-10T01:29:13.043Z,99.99
2017-08-10T01:30:25.017Z,99.99
2017-08-10T01:31:37.641Z,99.99
2017-08-10T01:32:49.923Z,99.99
2017-08-10T01:34:02.494Z,99.99
2017-08-10T01:35:15.123Z,99.99
2017-08-10T01:36:27.335Z,99.99
2017-08-10T01:37:39.937Z,99.99
2017-08-10T01:38:51.628Z,99.99
2017-08-10T01:40:04.172Z,99.99
2017-08-10T01:41:16.169Z,99.99
2017-08-10T01:42:28.464Z,99.99
2017-08-10T01:43:40.794Z,99.99
2017-08-10T01:44:53.057Z,99.99
2017-08-10T01:46:05.303Z,99.99
2017-08-10T01:47:17.923Z,99.99
2017-08-10T01:48:30.477Z,99.99
2017-08-10T01:49:43.022Z,99.99
2017-08-10T01:50:55.661Z,99.99
2017-08-10T01:52:07.966Z,99.99
2017-08-10T01:53:20.561Z,99.99
2017-08-10T01:54:32.856Z,99.99
2017-08-10T01:55:45.154Z,99.99
2017-08-10T01:56:57.676Z,99.99
2017-08-10T01:58:10.331Z,99.99
2017-08-10T01:59:22.326Z,99.99
2017-08-10T02:00:34.959Z,99.99
2017-08-10T02:01:46.658Z,99.99
2017-08-10T02:02:58.978Z,99.99
2017-08-10T02:04:11.283Z,99.99
2017-08-10T02:05:23.870Z,99.99
2017-08-10T02:06:36.115Z,99.99
2017-08-10T02:07:48.388Z,99.99
2017-08-10T02:09:01.003Z,99.99
2017-08-10T02:10:13.335Z,99.99
2017-08-10T02:11:25.893Z,99.99
2017-08-10T02:12:38.401Z,99.99
2017-08-10T02:13:50.720Z,99.99
2017-08-10T02:15:03.021Z,99.99
2017-08-10T02:16:15.607Z,99.99
2017-08-10T02:17:28.131Z,99.99
2017-08-10T02:18:40.799Z,99.99
2017-08-10T02:19:53.072Z,99.99
2017-08-10T02:21:05.398Z,99.99
2017-08-10T02:22:18.042Z,99.99
2017-08-10T02:23:30.639Z,99.99
2017-08-10T02:24:43.257Z,99.99
2017-08-10T02:25:55.860Z,99.99
2017-08-10T02:27:07.897Z,99.99
2017-08-10T02:28:20.509Z,99.99
2017-08-10T02:29:32.750Z,99.99
2017-08-10T02:30:45.316Z,99.99
2017-08-10T02:31:57.882Z,99.99
2017-08-10T02:33:10.159Z,99.99
2017-08-10T02:34:22.094Z,99.99
2017-08-10T02:35:34.647Z,99.99
2017-08-10T02:36:46.927Z,99.99
2017-08-10T02:37:58.886Z,99.99
2017-08-10T02:39:10.828Z,99.99
2017-08-10T02:40:22.455Z,99.99
2017-08-10T02:41:35.058Z,99.99
2017-08-10T02:42:47.668Z,99.99
2017-08-10T02:44:00.268Z,99.99
2017-08-10T02:45:12.035Z,99.99
2017-08-10T02:46:24.617Z,99.99
2017-08-10T02:47:37.273Z,99.99
2017-08-10T02:48:49.883Z,99.99
2017-08-10T02:50:02.225Z,99.99
2017-08-10T02:51:14.540Z,99.99
2017-08-10T02:52:26.818Z,99.99
2017-08-10T02:53:39.135Z,99.99
2017-08-10T02:54:51.720Z,99.99
2017-08-10T02:56:04.066Z,99.99
2017-08-10T02:57:15.961Z,99.99
2017-08-10T02:58:28.252Z,99.99
2017-08-10T02:59:40.859Z,99.99
2017-08-10T03:00:52.834Z,99.99
2017-08-10T03:02:05.103Z,99.99
2017-08-10T03:03:17.728Z,99.99
2017-08-10T03:04:30.012Z,99.99
2017-08-10T03:05:42.543Z,99.99
2017-08-10T03:06:55.099Z,99.99
2017-08-10T03:08:07.723Z,99.99
2017-08-10T03:09:19.665Z,99.99
2017-08-10T03:10:32.284Z,99.99
2017-08-10T03:11:44.599Z,99.99
2017-08-10T03:12:56.914Z,99.99
2017-08-10T03:14:08.937Z,99.99
2017-08-10T03:15:21.219Z,99.99
2017-08-10T03:16:33.909Z,99.99
2017-08-10T03:17:45.929Z,99.99
2017-08-10T03:18:58.539Z,99.99
2017-08-10T03:20:10.822Z,99.99
2017-08-10T03:21:23.387Z,99.99
2017-08-10T03:22:35.959Z,99.99
2017-08-10T03:23:48.587Z,99.99
2017-08-10T03:25:01.154Z,99.99
2017-08-10T03:26:13.426Z,99.99
2017-08-10T03:27:26.023Z,99.99
2017-08-10T03:28:38.061Z,99.99
2017-08-10T03:29:49.758Z,99.99
2017-08-10T03:31:02.355Z,99.99
2017-08-10T03:32:14.968Z,99.99
2017-08-10T03:33:27.549Z,99.99
2017-08-10T03:34:40.117Z,99.99
2017-08-10T03:35:52.406Z,99.99
2017-08-10T03:37:05.016Z,99.99
2017-08-10T03:38:17.678Z,99.99
2017-08-10T03:39:30.293Z,99.99
2017-08-10T03:40:42.908Z,99.99
2017-08-10T03:41:55.496Z,99.99
2017-08-10T03:43:07.516Z,99.99
2017-08-10T03:44:19.786Z,99.99
2017-08-10T03:45:32.373Z,99.99
2017-08-10T03:46:44.981Z,99.99
2017-08-10T03:47:57.578Z,99.99
2017-08-10T03:49:10.160Z,99.99
2017-08-10T03:50:22.464Z,99.99
2017-08-10T03:51:34.478Z,99.99
2017-08-10T03:52:47.062Z,99.99
2017-08-10T03:53:59.680Z,99.99
2017-08-10T03:55:12.239Z,99.99
2017-08-10T03:56:24.868Z,99.99
2017-08-10T03:57:37.417Z,99.99
2017-08-10T03:58:49.716Z,99.99
2017-08-10T04:00:01.659Z,99.99
2017-08-10T04:01:13.628Z,99.99
2017-08-10T04:02:25.892Z,99.99
2017-08-10T04:03:38.177Z,99.99
2017-08-10T04:04:50.483Z,99.99
2017-08-10T04:06:03.073Z,99.99
2017-08-10T04:07:15.108Z,99.99
2017-08-10T04:08:27.057Z,99.99
2017-08-10T04:09:39.631Z,99.99
2017-08-10T04:10:51.949Z,99.99
2017-08-10T04:12:04.508Z,99.99
2017-08-10T04:13:16.480Z,99.99
2017-08-10T04:14:29.156Z,99.99
2017-08-10T04:15:41.432Z,99.99
2017-08-10T04:16:54.041Z,99.99
2017-08-10T04:18:06.306Z,99.99
2017-08-10T04:19:18.609Z,99.99
2017-08-10T04:20:30.914Z,99.99
2017-08-10T04:21:42.919Z,99.99
2017-08-10T04:22:55.546Z,99.99
2017-08-10T04:24:08.092Z,99.99
2017-08-10T04:25:20.402Z,99.99
2017-08-10T04:26:32.642Z,99.99
2017-08-10T04:27:45.155Z,99.99
2017-08-10T04:28:57.733Z,99.99
2017-08-10T04:30:10.085Z,99.99
2017-08-10T04:31:22.631Z,99.99
2017-08-10T04:32:35.225Z,99.99
2017-08-10T04:33:47.800Z,99.99
2017-08-10T04:35:00.368Z,99.99
2017-08-10T04:36:12.659Z,99.99
2017-08-10T04:37:25.241Z,99.99
2017-08-10T04:38:37.865Z,99.99
2017-08-10T04:39:50.465Z,99.99
2017-08-10T04:41:02.799Z,99.99
2017-08-10T04:42:15.415Z,99.99
2017-08-10T04:43:28.030Z,99.99
2017-08-10T04:44:40.341Z,99.99
2017-08-10T04:45:52.957Z,99.99
2017-08-10T04:47:05.550Z,99.99
2017-08-10T04:48:18.135Z,99.99
2017-08-10T04:49:30.368Z,99.99
2017-08-10T04:50:42.668Z,99.99
2017-08-10T04:51:54.673Z,99.99
2017-08-10T04:53:06.604Z,99.99
2017-08-10T04:54:18.922Z,99.99
2017-08-10T04:55:31.219Z,99.99
2017-08-10T04:56:43.547Z,99.99
2017-08-10T04:57:56.165Z,99.99
2017-08-10T04:59:08.155Z,99.99
2017-08-10T05:00:20.756Z,99.99
2017-08-10T05:01:33.022Z,99.99
2017-08-10T05:02:45.301Z,99.99
2017-08-10T05:03:57.833Z,99.99
2017-08-10T05:05:09.788Z,99.99
2017-08-10T05:06:22.318Z,99.99
2017-08-10T05:07:34.930Z,99.99
2017-08-10T05:08:46.873Z,99.99
2017-08-10T05:09:59.500Z,99.99
2017-08-10T05:11:11.165Z,99.99
2017-08-10T05:12:23.757Z,99.99
2017-08-10T05:13:36.411Z,99.99
2017-08-10T05:14:48.977Z,99.99
2017-08-10T05:16:01.574Z,99.99
2017-08-10T05:17:13.858Z,99.99
2017-08-10T05:18:26.142Z,99.99
2017-08-10T05:19:38.688Z,99.99
2017-08-10T05:20:51.320Z,99.99
2017-08-10T05:22:03.605Z,99.99
2017-08-10T05:23:15.568Z,99.99
2017-08-10T05:24:28.099Z,99.99
2017-08-10T05:25:40.453Z,99.99
2017-08-10T05:26:52.799Z,99.99
2017-08-10T05:28:05.440Z,99.99
2017-08-10T05:29:18.028Z,99.99
2017-08-10T05:30:30.617Z,99.99
2017-08-10T05:31:42.902Z,99.99
2017-08-10T05:32:55.805Z,99.99
2017-08-10T05:34:08.098Z,99.99
2017-08-10T05:35:20.385Z,99.99
2017-08-10T05:36:32.982Z,99.99
2017-08-10T05:37:45.638Z,99.99
2017-08-10T05:38:57.977Z,99.99
2017-08-10T05:40:09.912Z,99.99
2017-08-10T05:41:22.207Z,99.99
2017-08-10T05:42:34.785Z,99.99
2017-08-10T05:43:47.083Z,99.99
2017-08-10T05:44:59.626Z,99.99
2017-08-10T05:46:11.900Z,99.99
2017-08-10T05:47:24.230Z,99.99
2017-08-10T05:48:36.575Z,99.99
2017-08-10T05:49:49.253Z,99.99
2017-08-10T05:51:01.836Z,99.99
2017-08-10T05:52:14.409Z,99.99
2017-08-10T05:53:26.943Z,99.99
2017-08-10T05:54:39.566Z,99.99
2017-08-10T05:55:52.114Z,99.99
2017-08-10T05:57:04.415Z,99.99
2017-08-10T05:58:17.024Z,99.99
2017-08-10T05:59:29.618Z,99.99
2017-08-10T06:00:41.915Z,99.99
2017-08-10T06:01:54.474Z,99.99
2017-08-10T06:03:07.032Z,99.99
2017-08-10T06:04:19.004Z,99.99
2017-08-10T06:05:31.592Z,99.99
2017-08-10T06:06:43.562Z,99.99
2017-08-10T06:07:56.200Z,99.99
2017-08-10T06:09:08.802Z,99.99
2017-08-10T06:10:21.358Z,99.99
2017-08-10T06:11:33.965Z,99.99
2017-08-10T06:12:46.599Z,99.99
2017-08-10T06:13:59.188Z,99.99
2017-08-10T06:15:11.499Z,99.99
2017-08-10T06:16:23.799Z,99.99
2017-08-10T06:17:36.128Z,99.99
2017-08-10T06:18:48.751Z,99.99
2017-08-10T06:20:01.276Z,99.99
2017-08-10T06:21:13.753Z,99.99
2017-08-10T06:22:26.048Z,99.99
2017-08-10T06:23:38.334Z,99.99
2017-08-10T06:24:50.910Z,99.99
2017-08-10T06:26:02.880Z,99.99
2017-08-10T06:27:15.462Z,99.99
2017-08-10T06:28:28.079Z,99.99
2017-08-10T06:29:40.068Z,99.99
2017-08-10T06:30:52.694Z,99.99
2017-08-10T06:32:04.969Z,99.99
2017-08-10T06:33:16.906Z,99.99
2017-08-10T06:34:29.233Z,99.99
2017-08-10T06:35:41.856Z,99.99
2017-08-10T06:36:54.483Z,99.99
2017-08-10T06:38:07.040Z,99.99
2017-08-10T06:39:19.645Z,99.99
2017-08-10T06:40:31.963Z,99.99
2017-08-10T06:41:44.302Z,99.99
2017-08-10T06:42:56.898Z,99.99
2017-08-10T06:44:09.476Z,99.99
2017-08-10T06:45:21.748Z,99.99
2017-08-10T06:46:34.346Z,99.99
2017-08-10T06:47:46.909Z,99.99
2017-08-10T06:48:59.519Z,99.99
2017-08-10T06:50:12.122Z,99.99
2017-08-10T06:51:24.100Z,99.99
2017-08-10T06:52:36.676Z,99.99
2017-08-10T06:53:49.286Z,99.99
2017-08-10T06:55:01.601Z,99.99
2017-08-10T06:56:13.599Z,99.99
2017-08-10T06:57:26.208Z,99.99
2017-08-10T06:58:38.503Z,99.99
2017-08-10T06:59:50.443Z,99.99
2017-08-10T07:01:03.010Z,99.99
2017-08-10T07:02:15.344Z,99.99
2017-08-10T07:03:27.654Z,99.99
2017-08-10T07:04:40.484Z,99.99
2017-08-10T07:05:52.454Z,99.99
2017-08-10T07:07:04.724Z,99.99
2017-08-10T07:08:17.295Z,99.99
2017-08-10T07:09:29.883Z,99.99
2017-08-10T07:10:42.440Z,99.99
2017-08-10T07:11:54.436Z,99.99
2017-08-10T07:13:07.083Z,99.99
2017-08-10T07:14:19.714Z,99.99
2017-08-10T07:15:31.998Z,99.99
2017-08-10T07:16:44.358Z,99.99
2017-08-10T07:17:56.987Z,99.99
2017-08-10T07:19:08.695Z,99.99
2017-08-10T07:20:20.716Z,99.99
2017-08-10T07:21:33.326Z,99.99
2017-08-10T07:22:45.674Z,99.99
2017-08-10T07:23:57.966Z,99.99
2017-08-10T07:25:10.561Z,99.99
2017-08-10T07:26:22.850Z,99.99
2017-08-10T07:27:35.480Z,99.99
2017-08-10T07:28:48.050Z,99.99
2017-08-10T07:30:00.739Z,99.99
2017-08-10T07:31:13.318Z,99.99
2017-08-10T07:32:25.907Z,99.99
2017-08-10T07:33:38.471Z,99.99
2017-08-10T07:34:51.141Z,99.99
2017-08-10T07:36:03.169Z,99.99
2017-08-10T07:37:15.473Z,99.99
2017-08-10T07:38:27.442Z,99.99
2017-08-10T07:39:39.388Z,99.99
2017-08-10T07:40:51.946Z,99.99
2017-08-10T07:42:04.209Z,99.99
2017-08-10T07:43:16.180Z,99.99
2017-08-10T07:44:28.775Z,99.99
2017-08-10T07:45:41.120Z,99.99
2017-08-10T07:46:53.707Z,99.99
2017-08-10T07:48:05.662Z,99.99
2017-08-10T07:49:17.924Z,99.99
2017-08-10T07:50:30.525Z,99.99
2017-08-10T07:51:42.811Z,99.99
2017-08-10T07:52:55.148Z,99.99
2017-08-10T07:54:07.714Z,99.99
2017-08-10T07:55:20.303Z,99.99
2017-08-10T07:56:32.631Z,99.99
2017-08-10T07:57:44.908Z,99.99
2017-08-10T07:58:57.272Z,99.99
2017-08-10T08:00:09.897Z,99.99
2017-08-10T08:01:22.250Z,99.99
2017-08-10T08:02:34.538Z,99.99
2017-08-10T08:03:46.835Z,99.99
2017-08-10T08:04:59.132Z,99.99
2017-08-10T08:06:11.422Z,99.99
2017-08-10T08:07:23.772Z,99.99
2017-08-10T08:08:36.391Z,99.99
2017-08-10T08:09:48.698Z,99.99
2017-08-10T08:11:01.269Z,99.99
2017-08-10T08:12:13.839Z,99.99
2017-08-10T08:13:26.392Z,99.99
2017-08-10T08:14:38.998Z,99.99
2017-08-10T08:15:51.309Z,99.99
2017-08-10T08:17:03.596Z,99.99
2017-08-10T08:18:15.875Z,99.99
2017-08-10T08:19:28.149Z,99.99
2017-08-10T08:20:40.643Z,99.99
2017-08-10T08:21:53.253Z,99.99
2017-08-10T08:23:05.614Z,99.99
2017-08-10T08:24:17.888Z,99.99
2017-08-10T08:25:30.182Z,98.82
2017-08-10T08:26:42.829Z,99.99
2017-08-10T08:27:55.460Z,99.99
2017-08-10T08:29:08.072Z,99.99
2017-08-10T08:30:20.622Z,99.99
2017-08-10T08:31:32.881Z,99.99
2017-08-10T08:32:45.532Z,99.99
2017-08-10T08:33:58.102Z,99.99
2017-08-10T08:35:10.118Z,99.99
2017-08-10T08:36:22.682Z,99.99
2017-08-10T08:37:35.325Z,99.99
2017-08-10T08:38:47.614Z,99.99
2017-08-10T08:40:00.194Z,99.65
2017-08-10T08:41:12.551Z,98
2017-08-10T08:42:25.152Z,99.16
2017-08-10T08:43:37.773Z,98.97
2017-08-10T08:44:50.396Z,99.26
2017-08-10T08:46:02.983Z,98.2
2017-08-10T08:47:15.587Z,98.34
2017-08-10T08:48:28.193Z,99.21
2017-08-10T08:49:40.527Z,96.12
2017-08-10T08:50:53.129Z,94.87
2017-08-10T08:52:05.792Z,95.54
2017-08-10T08:53:18.067Z,95.83
2017-08-10T08:54:30.067Z,96.22
2017-08-10T08:55:42.381Z,96.7
2017-08-10T08:56:54.077Z,97.77
2017-08-10T08:58:06.679Z,99.99
2017-08-10T08:59:18.994Z,99.99
2017-08-10T09:00:31.307Z,99.55
2017-08-10T09:01:43.553Z,99.99
2017-08-10T09:02:56.114Z,96.84
2017-08-10T09:04:08.671Z,97.04
2017-08-10T09:05:21.248Z,96.66
2017-08-10T09:06:33.886Z,91.44
2017-08-10T09:07:46.227Z,94.34
2017-08-10T09:08:58.796Z,95.88
2017-08-10T09:10:11.037Z,95.88
2017-08-10T09:11:23.306Z,97.24
2017-08-10T09:12:35.927Z,98.68
2017-08-10T09:13:48.488Z,93.66
2017-08-10T09:15:00.742Z,94.09
2017-08-10T09:16:12.672Z,96.22
2017-08-10T09:17:25.258Z,96.51
2017-08-10T09:18:37.503Z,98.44
2017-08-10T09:19:50.067Z,96.7
2017-08-10T09:21:02.038Z,93.99
2017-08-10T09:22:14.292Z,96.36
2017-08-10T09:23:26.590Z,96.65
2017-08-10T09:24:38.858Z,95.49
2017-08-10T09:25:51.396Z,89.74
2017-08-10T09:27:03.941Z,89.35
2017-08-10T09:28:15.934Z,92.06
2017-08-10T09:29:28.266Z,92.64
2017-08-10T09:30:40.911Z,90.03
2017-08-10T09:31:53.210Z,92.25
2017-08-10T09:33:05.511Z,94.09
2017-08-10T09:34:17.803Z,92.54
2017-08-10T09:35:30.177Z,89.59
2017-08-10T09:36:42.466Z,89.2
2017-08-10T09:37:54.448Z,87.55
2017-08-10T09:39:06.734Z,89.88
2017-08-10T09:40:19.305Z,90.99
2017-08-10T09:41:31.655Z,91.66
2017-08-10T09:42:44.273Z,87.06
2017-08-10T09:43:56.574Z,87.26
2017-08-10T09:45:09.167Z,87.54
2017-08-10T09:46:20.852Z,90.74
2017-08-10T09:47:33.458Z,89.68
2017-08-10T09:48:45.804Z,83.72
2017-08-10T09:49:58.065Z,86.87
2017-08-10T09:51:09.760Z,90.11
2017-08-10T09:52:22.030Z,85.75
2017-08-10T09:53:34.241Z,84.88
2017-08-10T09:54:46.509Z,86.52
2017-08-10T09:55:59.154Z,86.04
2017-08-10T09:57:11.741Z,86.82
2017-08-10T09:58:24.303Z,83.13
2017-08-10T09:59:36.320Z,86.43
2017-08-10T10:00:48.588Z,84.49
2017-08-10T10:02:01.155Z,86.13
2017-08-10T10:03:13.454Z,82.07
2017-08-10T10:04:25.697Z,83.03
2017-08-10T10:05:37.755Z,82.65
2017-08-10T10:06:50.341Z,84.1
2017-08-10T10:08:02.647Z,85.55
2017-08-10T10:09:14.975Z,88.37
2017-08-10T10:10:27.577Z,87.49
2017-08-10T10:11:39.590Z,85.65
2017-08-10T10:12:52.179Z,78.61
2017-08-10T10:14:04.191Z,80.62
2017-08-10T10:15:16.774Z,83.27
2017-08-10T10:16:29.440Z,84.14
2017-08-10T10:17:42.030Z,84.82
2017-08-10T10:18:54.351Z,84.82
2017-08-10T10:20:07.036Z,83.99
2017-08-10T10:21:19.656Z,79.63
2017-08-10T10:22:31.938Z,81.47
2017-08-10T10:23:44.509Z,83.02
2017-08-10T10:24:56.785Z,81.7
2017-08-10T10:26:09.353Z,78.59
2017-08-10T10:27:21.349Z,82.81
2017-08-10T10:28:33.984Z,83.97
2017-08-10T10:29:46.250Z,83.14
2017-08-10T10:30:58.837Z,80.94
2017-08-10T10:32:11.189Z,78.17
2017-08-10T10:33:23.477Z,74.86
2017-08-10T10:34:35.794Z,74.61
2017-08-10T10:35:48.118Z,75.87
2017-08-10T10:37:00.121Z,69.48
2017-08-10T10:38:12.153Z,74.74
2017-08-10T10:39:24.149Z,71.33
2017-08-10T10:40:36.468Z,70.1
2017-08-10T10:41:48.824Z,73.71
2017-08-10T10:43:01.391Z,69.94
2017-08-10T10:44:13.445Z,67.8
2017-08-10T10:45:26.063Z,67.6
2017-08-10T10:46:38.408Z,68.29
2017-08-10T10:47:51.019Z,69.49
2017-08-10T10:49:02.972Z,68.71
2017-08-10T10:50:15.571Z,66.5
2017-08-10T10:51:27.900Z,63.51
2017-08-10T10:52:40.245Z,65.17
2017-08-10T10:53:52.260Z,63.6
2017-08-10T10:55:04.886Z,62.66
2017-08-10T10:56:16.548Z,60.84
2017-08-10T10:57:28.832Z,64.45
2017-08-10T10:58:40.818Z,64.55
2017-08-10T10:59:53.445Z,63.31
2017-08-10T11:01:05.818Z,59.43
2017-08-10T11:02:18.430Z,60.99
2017-08-10T11:03:30.627Z,56.2
2017-08-10T11:04:43.250Z,59.04
2017-08-10T11:05:55.894Z,57.57
2017-08-10T11:07:07.939Z,61.41
2017-08-10T11:08:19.910Z,57.63
2017-08-10T11:09:31.607Z,57.34
2017-08-10T11:10:43.922Z,56.29
2017-08-10T11:11:55.933Z,54.91
2017-08-10T11:13:08.533Z,55.63
2017-08-10T11:14:20.852Z,58.27
2017-08-10T11:15:32.555Z,56.81
2017-08-10T11:16:44.571Z,54.77
2017-08-10T11:17:57.203Z,55.95
2017-08-10T11:19:09.544Z,54.28
2017-08-10T11:20:21.561Z,52.81
2017-08-10T11:21:34.135Z,51.15
2017-08-10T11:22:46.144Z,53.2
2017-08-10T11:23:58.155Z,52.23
2017-08-10T11:25:10.486Z,50.56
2017-08-10T11:26:23.108Z,50.56
2017-08-10T11:27:35.770Z,49.21
2017-08-10T11:28:48.100Z,50.73
2017-08-10T11:30:00.438Z,50.95
2017-08-10T11:31:13.036Z,49.29
2017-08-10T11:32:25.017Z,48.21
2017-08-10T11:33:37.670Z,50.56
2017-08-10T11:34:50.295Z,53.01
2017-08-10T11:36:02.931Z,50.66
2017-08-10T11:37:14.349Z,50.46
2017-08-10T11:38:26.629Z,48.7
2017-08-10T11:39:39.181Z,48.6
2017-08-10T11:40:51.459Z,49.09
2017-08-10T11:42:04.096Z,49.02
2017-08-10T11:43:16.657Z,48.63
2017-08-10T11:44:29.000Z,48.11
2017-08-10T11:45:41.204Z,49.8
2017-08-10T11:46:53.502Z,50.2
2017-08-10T11:48:05.840Z,50.68
2017-08-10T11:49:18.132Z,52.06
2017-08-10T11:50:30.470Z,51.17
2017-08-10T11:51:43.115Z,52.45
2017-08-10T11:52:55.767Z,50.98
2017-08-10T11:54:08.420Z,50.49
2017-08-10T11:55:21.048Z,50.85
2017-08-10T11:56:33.294Z,50.73
2017-08-10T11:57:45.664Z,50.63
2017-08-10T11:58:58.292Z,51.32
2017-08-10T12:00:10.624Z,49.26
2017-08-10T12:01:22.892Z,49.46
2017-08-10T12:02:35.454Z,50.73
2017-08-10T12:03:48.105Z,52.4
2017-08-10T12:05:00.429Z,50.44
2017-08-10T12:06:12.387Z,50.66
2017-08-10T12:07:24.376Z,53.2
2017-08-10T12:08:37.012Z,52.13
2017-08-10T12:09:49.673Z,52.84
2017-08-10T12:11:02.305Z,52.45
2017-08-10T12:12:14.015Z,52.76
2017-08-10T12:13:26.601Z,49.63
2017-08-10T12:14:38.909Z,49.73
2017-08-10T12:15:50.634Z,48.85
2017-08-10T12:17:02.628Z,49.43
2017-08-10T12:18:15.271Z,50.12
2017-08-10T12:19:27.569Z,49.24
2017-08-10T12:20:40.197Z,50.54
2017-08-10T12:21:52.868Z,46.51
2017-08-10T12:23:05.215Z,47
2017-08-10T12:24:17.512Z,47.81
2017-08-10T12:25:29.589Z,49.07
2017-08-10T12:26:41.903Z,50.44
2017-08-10T12:27:54.480Z,50.44
2017-08-10T12:29:07.062Z,47.91
2017-08-10T12:30:19.337Z,48.57
2017-08-10T12:31:31.593Z,49.55
2017-08-10T12:32:43.264Z,51.22
2017-08-10T12:33:55.867Z,50.44
2017-08-10T12:35:07.563Z,49.46
2017-08-10T12:36:19.877Z,47.79
2017-08-10T12:37:32.149Z,47.96
2017-08-10T12:38:44.148Z,48.63
2017-08-10T12:39:56.783Z,49.8
2017-08-10T12:41:09.398Z,49.41
2017-08-10T12:42:22.045Z,48.99
2017-08-10T12:43:34.288Z,49.46
2017-08-10T12:44:46.899Z,50.15
2017-08-10T12:45:59.505Z,50.24
2017-08-10T12:47:11.852Z,50.51
2017-08-10T12:48:23.845Z,50.93
2017-08-10T12:49:35.833Z,50.51
2017-08-10T12:50:48.389Z,50.9
2017-08-10T12:52:00.660Z,50.71
2017-08-10T12:53:12.991Z,51.2
2017-08-10T12:54:25.377Z,52.17
2017-08-10T12:55:37.986Z,54.23
2017-08-10T12:56:49.939Z,52.86
2017-08-10T12:58:02.590Z,53.25
2017-08-10T12:59:14.982Z,52.76
2017-08-10T13:00:27.595Z,51.07
2017-08-10T13:01:40.173Z,51.83
2017-08-10T13:02:52.537Z,52
2017-08-10T13:04:05.117Z,52.1
2017-08-10T13:05:17.687Z,53.76
2017-08-10T13:06:30.000Z,53.96
2017-08-10T13:07:42.596Z,54.25
2017-08-10T13:08:54.604Z,55.81
2017-08-10T13:10:06.895Z,56.3
2017-08-10T13:11:18.868Z,53.88
2017-08-10T13:12:30.840Z,54.93
2017-08-10T13:13:43.214Z,55.42
2017-08-10T13:14:55.497Z,54.54
2017-08-10T13:16:07.812Z,54.25
2017-08-10T13:17:19.520Z,54.64
2017-08-10T13:18:31.483Z,53.96
2017-08-10T13:19:43.474Z,54.91
2017-08-10T13:20:55.826Z,54.42
2017-08-10T13:22:08.154Z,55.88
2017-08-10T13:23:20.492Z,55.57
2017-08-10T13:24:32.838Z,54.98
2017-08-10T13:25:45.143Z,54.79
2017-08-10T13:26:56.813Z,55.37
2017-08-10T13:28:09.120Z,56.35
2017-08-10T13:29:21.706Z,57.32
2017-08-10T13:30:33.669Z,57.23
2017-08-10T13:31:46.239Z,57.23
2017-08-10T13:32:58.774Z,55.27
2017-08-10T13:34:10.738Z,55.86
2017-08-10T13:35:23.297Z,54.98
2017-08-10T13:36:34.964Z,55.08
2017-08-10T13:37:47.326Z,54.69
2017-08-10T13:38:59.658Z,56.25
2017-08-10T13:40:11.950Z,55.86
2017-08-10T13:41:24.248Z,57.81
2017-08-10T13:42:36.543Z,57.13
2017-08-10T13:43:48.610Z,54.69
2017-08-10T13:45:01.195Z,54.27
2017-08-10T13:46:13.766Z,55.73
2017-08-10T13:47:26.012Z,56.02
2017-08-10T13:48:38.558Z,55.05
2017-08-10T13:49:51.165Z,55.24
2017-08-10T13:51:03.837Z,54.85
2017-08-10T13:52:15.820Z,54.69
2017-08-10T13:53:28.498Z,54.88
2017-08-10T13:54:41.129Z,57.91
2017-08-10T13:55:53.164Z,59.86
2017-08-10T13:57:05.511Z,60.84
2017-08-10T13:58:18.106Z,59.67
2017-08-10T13:59:30.704Z,59.2
2017-08-10T14:00:42.957Z,57.62
2017-08-10T14:01:55.631Z,55.57
2017-08-10T14:03:07.955Z,57.03
2017-08-10T14:04:19.962Z,58.01
2017-08-10T14:05:31.978Z,57.68
2017-08-10T14:06:44.578Z,58.95
2017-08-10T14:07:57.210Z,59.61
2017-08-10T14:09:09.837Z,58.83
2017-08-10T14:10:21.834Z,60.39
2017-08-10T14:11:33.873Z,58.73
2017-08-10T14:12:46.211Z,58.8
2017-08-10T14:13:58.856Z,57.34
2017-08-10T14:15:11.111Z,57.89
2017-08-10T14:16:23.757Z,58.38
2017-08-10T14:17:36.378Z,57.57
2017-08-10T14:18:48.737Z,57.37
2017-08-10T14:20:01.369Z,58.84
2017-08-10T14:21:13.690Z,60.46
2017-08-10T14:22:25.932Z,61.44
2017-08-10T14:23:37.613Z,62.12
2017-08-10T14:24:50.292Z,62.57
2017-08-10T14:26:02.630Z,63.55
2017-08-10T14:27:14.635Z,64.23
2017-08-10T14:28:27.248Z,64.1
2017-08-10T14:29:39.768Z,62.26
2017-08-10T14:30:51.728Z,62.35
2017-08-10T14:32:04.351Z,62.74
2017-08-10T14:33:16.964Z,62.93
2017-08-10T14:34:29.566Z,62.93
2017-08-10T14:35:41.831Z,62.03
2017-08-10T14:36:54.451Z,60.86
2017-08-10T14:38:06.500Z,60.77
2017-08-10T14:39:18.786Z,62.51
2017-08-10T14:40:31.425Z,63.87
2017-08-10T14:41:43.774Z,66.4
2017-08-10T14:42:56.089Z,64.65
2017-08-10T14:44:08.694Z,63.2
2017-08-10T14:45:21.315Z,64.53
2017-08-10T14:46:33.673Z,61.9
2017-08-10T14:47:45.658Z,62.97
2017-08-10T14:48:58.283Z,62.87
2017-08-10T14:50:10.580Z,64.53
2017-08-10T14:51:22.870Z,63.45
2017-08-10T14:52:35.523Z,65.59
2017-08-10T14:53:47.843Z,66.27
2017-08-10T14:55:00.418Z,63.94
2017-08-10T14:56:13.054Z,63.13
2017-08-10T14:57:25.717Z,65.75
2017-08-10T14:58:37.993Z,65.17
2017-08-10T14:59:49.659Z,65.56
2017-08-10T15:01:02.351Z,67.41
2017-08-10T15:02:14.916Z,64.49
2017-08-10T15:03:27.295Z,63.91
2017-08-10T15:04:39.912Z,64.3
2017-08-10T15:05:52.459Z,63.04
2017-08-10T15:07:05.093Z,60.61
2017-08-10T15:08:17.373Z,61.94
2017-08-10T15:09:29.984Z,62.62
2017-08-10T15:10:42.266Z,63.59
2017-08-10T15:11:54.265Z,62.62
2017-08-10T15:13:06.543Z,63.39
2017-08-10T15:14:18.507Z,61.25
2017-08-10T15:15:31.063Z,62.32
2017-08-10T15:16:43.335Z,63.98
2017-08-10T15:17:55.705Z,64.46
2017-08-10T15:19:08.250Z,66.5
2017-08-10T15:20:20.203Z,67.54
2017-08-10T15:21:32.527Z,67.28
2017-08-10T15:22:44.832Z,64.04
2017-08-10T15:23:57.501Z,64.92
2017-08-10T15:25:09.488Z,65.4
2017-08-10T15:26:21.713Z,65.11
2017-08-10T15:27:33.997Z,65.59
2017-08-10T15:28:45.951Z,68.89
2017-08-10T15:29:58.268Z,70.45
2017-08-10T15:31:10.556Z,69.57
2017-08-10T15:32:22.945Z,67.63
2017-08-10T15:33:35.560Z,67.63
2017-08-10T15:34:47.558Z,68.7